createdAt,value
2023-01-29T00:02:13.894Z,28.93
2023-01-29T00:04:41.601Z,28.78
2023-01-29T00:07:08.812Z,28.12
2023-01-29T00:09:36.414Z,29.36
2023-01-29T00:12:03.428Z,28.32
2023-01-29T00:14:30.155Z,29.19
2023-01-29T00:17:00.903Z,29.56
2023-01-29T00:19:28.131Z,28.79
2023-01-29T00:21:56.057Z,29.07
2023-01-29T00:24:23.176Z,29.74
2023-01-29T00:26:49.989Z,28.95
2023-01-29T00:29:17.575Z,29.59
2023-01-29T00:31:45.620Z,29.08
2023-01-29T00:34:12.556Z,29.08
2023-01-29T00:36:39.394Z,28.33
2023-01-29T00:39:12.250Z,30.06
2023-01-29T00:41:40.587Z,29.65
2023-01-29T00:44:07.359Z,29.51
2023-01-29T00:46:34.483Z,29.97
2023-01-29T00:49:01.659Z,29.31
2023-01-29T00:51:28.412Z,29.49
2023-01-29T00:53:56.730Z,29.31
2023-01-29T00:56:23.779Z,29.86
2023-01-29T00:58:53.652Z,29.10
2023-01-29T01:01:21.809Z,28.86
2023-01-29T01:03:49.022Z,29.17
2023-01-29T01:06:21.923Z,29.81
2023-01-29T01:08:48.800Z,30.66
2023-01-29T01:11:16.785Z,29.63
2023-01-29T01:13:43.597Z,29.81
2023-01-29T01:16:11.961Z,30.21
2023-01-29T01:18:41.835Z,29.72
2023-01-29T01:21:08.748Z,29.06
2023-01-29T01:23:36.605Z,29.59
2023-01-29T01:26:07.030Z,29.07
2023-01-29T01:28:33.776Z,28.69
2023-01-29T01:31:08.489Z,30.89
2023-01-29T01:33:35.475Z,30.49
2023-01-29T01:36:02.536Z,30.69
2023-01-29T01:38:29.250Z,30.38
2023-01-29T01:40:56.444Z,29.78
2023-01-29T01:43:24.187Z,28.73
2023-01-29T01:45:52.336Z,30.74
2023-01-29T01:48:24.402Z,30.56
2023-01-29T01:50:54.508Z,30.60
2023-01-29T01:53:26.842Z,30.24
2023-01-29T01:55:57.281Z,30.25
2023-01-29T01:58:32.377Z,31.12
2023-01-29T02:01:02.687Z,30.44
2023-01-29T02:03:35.728Z,29.69
2023-01-29T02:06:02.450Z,30.88
2023-01-29T02:08:43.899Z,30.65
2023-01-29T02:11:10.862Z,31.06
2023-01-29T02:13:37.632Z,31.13
2023-01-29T02:16:05.167Z,30.76
2023-01-29T02:18:32.557Z,30.39
2023-01-29T02:21:40.095Z,30.85
2023-01-29T02:24:44.582Z,30.96
2023-01-29T02:27:14.241Z,30.73
2023-01-29T02:29:59.206Z,29.50
2023-01-29T02:32:47.771Z,30.53
2023-01-29T02:35:28.630Z,30.17
2023-01-29T02:38:29.291Z,31.06
2023-01-29T02:41:08.264Z,30.13
2023-01-29T02:43:50.359Z,28.85
2023-01-29T02:46:28.044Z,28.56
2023-01-29T02:49:35.074Z,28.89
2023-01-29T02:52:17.453Z,28.21
2023-01-29T02:54:51.797Z,29.78
2023-01-29T02:57:23.230Z,28.80
2023-01-29T02:59:55.865Z,28.21
2023-01-29T03:02:27.142Z,28.66
2023-01-29T03:04:58.171Z,28.06
2023-01-29T03:07:31.901Z,28.56
2023-01-29T03:09:59.151Z,28.42
2023-01-29T03:12:26.816Z,27.68
2023-01-29T03:14:53.903Z,28.44
2023-01-29T03:17:21.888Z,29.27
2023-01-29T03:19:48.973Z,28.68
2023-01-29T03:22:18.682Z,28.62
2023-01-29T03:24:51.480Z,28.15
2023-01-29T03:27:18.928Z,29.60
2023-01-29T03:29:46.186Z,27.52
2023-01-29T03:32:13.001Z,27.62
2023-01-29T03:34:41.766Z,28.14
2023-01-29T03:37:47.996Z,28.21
2023-01-29T03:40:18.120Z,26.95
2023-01-29T03:43:01.986Z,27.11
2023-01-29T03:45:36.384Z,27.94
2023-01-29T03:48:15.564Z,26.79
2023-01-29T03:51:07.469Z,28.60
2023-01-29T03:54:19.872Z,27.54
2023-01-29T03:57:20.271Z,27.34
2023-01-29T04:00:13.913Z,27.45
2023-01-29T04:03:09.456Z,27.70
2023-01-29T04:05:54.715Z,27.12
2023-01-29T04:08:25.881Z,27.59
2023-01-29T04:10:52.970Z,27.50
2023-01-29T04:13:20.184Z,27.13
2023-01-29T04:15:49.373Z,28.22
2023-01-29T04:18:19.047Z,27.10
2023-01-29T04:20:45.781Z,27.24
2023-01-29T04:23:24.605Z,27.28
2023-01-29T04:25:56.597Z,26.63
2023-01-29T04:28:45.705Z,26.86
2023-01-29T04:31:57.231Z,27.38
2023-01-29T04:34:50.368Z,26.98
2023-01-29T04:37:22.804Z,27.58
2023-01-29T04:40:10.489Z,28.77
2023-01-29T04:42:43.687Z,26.98
2023-01-29T04:45:18.678Z,26.75
2023-01-29T04:48:04.350Z,27.20
2023-01-29T04:50:41.573Z,27.36
2023-01-29T04:53:42.278Z,26.74
2023-01-29T04:59:39.331Z,27.82
2023-01-29T05:02:09.537Z,27.69
2023-01-29T05:04:36.630Z,28.04
2023-01-29T05:07:04.756Z,27.90
2023-01-29T05:09:32.082Z,27.29
2023-01-29T05:11:58.900Z,27.80
2023-01-29T05:14:28.825Z,26.89
2023-01-29T05:16:55.678Z,28.11
2023-01-29T05:19:22.457Z,27.65
2023-01-29T05:21:50.307Z,28.06
2023-01-29T05:24:27.216Z,28.36
2023-01-29T05:26:54.623Z,27.04
2023-01-29T05:29:22.712Z,26.64
2023-01-29T05:35:12.644Z,26.80
2023-01-29T05:37:40.604Z,27.22
2023-01-29T05:40:08.258Z,27.50
2023-01-29T05:42:35.287Z,28.37
2023-01-29T05:45:02.332Z,28.76
2023-01-29T05:47:29.472Z,27.90
2023-01-29T05:49:56.574Z,28.42
2023-01-29T05:52:26.435Z,28.08
2023-01-29T05:54:53.363Z,29.18
2023-01-29T05:57:20.336Z,28.27
2023-01-29T05:59:47.414Z,28.04
2023-01-29T06:02:14.572Z,27.07
2023-01-29T06:04:42.049Z,27.10
2023-01-29T06:07:08.824Z,26.66
2023-01-29T06:09:36.297Z,26.63
2023-01-29T06:12:03.759Z,27.82
2023-01-29T06:14:30.464Z,27.64
2023-01-29T06:16:57.250Z,27.50
2023-01-29T06:19:23.915Z,26.63
2023-01-29T06:21:50.691Z,27.71
2023-01-29T06:24:17.592Z,27.26
2023-01-29T06:26:44.748Z,27.06
2023-01-29T06:29:11.916Z,27.55
2023-01-29T06:31:41.951Z,27.05
2023-01-29T06:34:08.786Z,27.25
2023-01-29T06:36:35.819Z,27.63
2023-01-29T06:39:02.794Z,27.66
2023-01-29T06:41:29.821Z,26.50
2023-01-29T06:43:57.533Z,27.02
2023-01-29T06:46:24.888Z,27.34
2023-01-29T06:48:52.834Z,27.10
2023-01-29T06:51:19.943Z,27.04
2023-01-29T06:53:47.048Z,26.22
2023-01-29T06:56:15.118Z,26.84
2023-01-29T06:58:44.131Z,27.84
2023-01-29T07:01:29.221Z,28.22
2023-01-29T07:04:01.116Z,27.85
2023-01-29T07:06:28.991Z,27.15
2023-01-29T07:08:56.090Z,26.62
2023-01-29T07:11:22.817Z,27.08
2023-01-29T07:13:50.360Z,27.55
2023-01-29T07:16:17.560Z,27.59
2023-01-29T07:18:48.621Z,28.19
2023-01-29T07:21:16.608Z,26.87
2023-01-29T07:23:44.197Z,26.35
2023-01-29T07:26:11.347Z,27.34
2023-01-29T07:28:38.800Z,27.48
2023-01-29T07:31:05.829Z,27.84
2023-01-29T07:33:33.166Z,27.36
2023-01-29T07:35:59.878Z,27.52
2023-01-29T07:38:31.813Z,27.78
2023-01-29T07:40:59.050Z,27.25
2023-01-29T07:43:26.307Z,26.62
2023-01-29T07:45:53.443Z,27.05
2023-01-29T07:48:20.357Z,27.04
2023-01-29T07:50:55.740Z,27.27
2023-01-29T07:53:22.945Z,27.85
2023-01-29T07:55:50.044Z,27.82
2023-01-29T07:58:17.185Z,28.48
2023-01-29T08:00:44.339Z,28.42
2023-01-29T08:03:13.294Z,27.31
2023-01-29T08:05:40.439Z,27.70
2023-01-29T08:08:08.088Z,27.40
2023-01-29T08:10:40.465Z,27.09
2023-01-29T08:13:07.271Z,27.39
2023-01-29T08:15:34.361Z,27.63
2023-01-29T08:18:03.871Z,27.44
2023-01-29T08:20:31.033Z,28.70
2023-01-29T08:23:05.318Z,28.31
2023-01-29T08:25:38.960Z,27.40
2023-01-29T08:28:06.063Z,27.32
2023-01-29T08:30:33.841Z,27.69
2023-01-29T08:33:00.833Z,27.76
2023-01-29T08:35:27.776Z,28.17
2023-01-29T08:37:55.688Z,27.33
2023-01-29T08:40:23.226Z,28.04
2023-01-29T08:42:50.301Z,27.21
2023-01-29T08:45:17.860Z,27.92
2023-01-29T08:47:48.161Z,27.55
2023-01-29T08:50:16.199Z,27.58
2023-01-29T08:52:44.748Z,27.34
2023-01-29T08:55:14.784Z,27.45
2023-01-29T08:57:41.868Z,26.56
2023-01-29T09:00:10.001Z,27.16
2023-01-29T09:02:37.365Z,27.61
2023-01-29T09:05:04.930Z,26.73
2023-01-29T09:07:32.334Z,26.43
2023-01-29T09:09:59.433Z,26.53
2023-01-29T09:12:26.315Z,27.08
2023-01-29T09:14:53.429Z,26.38
2023-01-29T09:17:20.680Z,26.07
2023-01-29T09:19:47.420Z,27.53
2023-01-29T09:22:14.129Z,27.35
2023-01-29T09:24:41.472Z,27.35
2023-01-29T09:27:08.249Z,26.18
2023-01-29T09:29:36.001Z,25.47
2023-01-29T09:32:04.347Z,25.67
2023-01-29T09:34:31.055Z,25.65
2023-01-29T09:36:58.535Z,24.29
2023-01-29T09:39:25.295Z,25.30
2023-01-29T09:41:59.473Z,25.00
2023-01-29T09:44:53.913Z,24.53
2023-01-29T09:47:22.741Z,24.66
2023-01-29T09:50:10.868Z,24.93
2023-01-29T09:56:21.483Z,24.46
2023-01-29T09:58:48.610Z,25.34
2023-01-29T10:01:48.101Z,25.84
2023-01-29T10:04:51.506Z,27.40
2023-01-29T10:07:43.336Z,26.88
2023-01-29T10:10:23.941Z,26.95
2023-01-29T10:12:50.692Z,29.25
2023-01-29T10:15:38.770Z,28.28
2023-01-29T10:18:29.131Z,27.57
2023-01-29T10:24:07.481Z,28.66
2023-01-29T10:26:34.445Z,28.48
2023-01-29T10:29:01.240Z,28.06
2023-01-29T10:31:33.173Z,28.21
2023-01-29T10:34:24.001Z,28.64
2023-01-29T10:36:50.780Z,28.74
2023-01-29T10:39:25.549Z,28.86
2023-01-29T10:42:16.128Z,28.12
2023-01-29T10:45:10.640Z,27.82
2023-01-29T10:48:14.503Z,28.55
2023-01-29T10:51:02.013Z,28.20
2023-01-29T10:53:41.819Z,27.67
2023-01-29T10:56:28.902Z,29.02
2023-01-29T10:59:03.358Z,28.64
2023-01-29T11:01:30.496Z,28.99
2023-01-29T11:03:59.632Z,28.91
2023-01-29T11:06:44.849Z,30.17
2023-01-29T11:09:42.958Z,27.59
2023-01-29T11:12:30.863Z,26.28
2023-01-29T11:15:06.843Z,27.14
2023-01-29T11:17:34.465Z,26.14
2023-01-29T11:20:01.530Z,25.94
2023-01-29T11:22:29.884Z,25.80
2023-01-29T11:25:19.025Z,25.73
2023-01-29T11:27:49.369Z,26.02
2023-01-29T11:30:32.392Z,26.42
2023-01-29T11:33:10.076Z,26.18
2023-01-29T11:35:39.770Z,26.45
2023-01-29T11:38:28.751Z,25.95
2023-01-29T11:41:06.552Z,26.24
2023-01-29T11:43:34.283Z,25.84
2023-01-29T11:46:11.680Z,25.53
2023-01-29T11:48:46.544Z,26.81
2023-01-29T11:51:21.508Z,26.28
2023-01-29T11:54:10.236Z,26.14
2023-01-29T11:56:43.216Z,25.70
2023-01-29T11:59:42.875Z,25.85
2023-01-29T12:02:54.209Z,26.77
2023-01-29T12:05:25.133Z,25.92
2023-01-29T12:07:54.013Z,25.76
2023-01-29T12:10:48.400Z,26.50
2023-01-29T12:13:25.826Z,26.12
2023-01-29T12:16:09.181Z,27.14
2023-01-29T12:18:38.362Z,27.21
2023-01-29T12:21:33.663Z,25.73
2023-01-29T12:24:49.224Z,27.05
2023-01-29T12:27:36.930Z,26.53
2023-01-29T12:30:44.099Z,25.87
2023-01-29T12:33:51.356Z,27.24
2023-01-29T12:36:24.073Z,26.77
2023-01-29T12:38:50.777Z,26.10
2023-01-29T12:41:57.327Z,26.47
2023-01-29T12:44:48.995Z,26.59
2023-01-29T12:47:27.143Z,27.69
2023-01-29T12:49:57.096Z,27.68
2023-01-29T12:52:46.311Z,28.02
2023-01-29T12:55:16.405Z,28.17
2023-01-29T12:58:14.971Z,27.48
2023-01-29T13:00:46.237Z,27.54
2023-01-29T13:03:39.702Z,27.84
2023-01-29T13:06:08.276Z,27.69
2023-01-29T13:08:54.161Z,27.63
2023-01-29T13:11:30.687Z,27.10
2023-01-29T13:14:08.992Z,27.64
2023-01-29T13:16:47.495Z,27.73
2023-01-29T13:19:38.817Z,27.35
2023-01-29T13:22:20.309Z,27.11
2023-01-29T13:25:02.286Z,28.32
2023-01-29T13:27:31.613Z,26.73
2023-01-29T13:30:03.650Z,27.70
2023-01-29T13:32:31.850Z,27.19
2023-01-29T13:35:22.075Z,26.94
2023-01-29T13:37:50.875Z,26.82
2023-01-29T13:40:25.732Z,26.95
2023-01-29T13:42:57.280Z,27.28
2023-01-29T13:45:36.158Z,28.17
2023-01-29T13:48:26.280Z,26.93
2023-01-29T13:50:53.895Z,27.84
2023-01-29T13:53:23.381Z,27.51
2023-01-29T13:55:50.895Z,27.74
2023-01-29T13:58:38.577Z,26.91
2023-01-29T14:01:05.748Z,26.76
2023-01-29T14:04:03.853Z,27.37
2023-01-29T14:06:40.115Z,27.06
2023-01-29T14:09:37.955Z,26.38
2023-01-29T14:12:36.425Z,27.09
2023-01-29T14:15:16.865Z,27.70
2023-01-29T14:18:05.670Z,28.33
2023-01-29T14:20:48.726Z,27.26
2023-01-29T14:23:23.692Z,27.75
2023-01-29T14:25:50.485Z,27.51
2023-01-29T14:28:43.227Z,27.61
2023-01-29T14:31:10.472Z,28.61
2023-01-29T14:33:39.867Z,29.20
2023-01-29T14:36:12.696Z,27.50
2023-01-29T14:38:40.394Z,27.94
2023-01-29T14:41:28.771Z,28.37
2023-01-29T14:44:40.360Z,28.62
2023-01-29T14:47:17.797Z,27.91
2023-01-29T14:49:57.894Z,28.92
2023-01-29T14:52:37.471Z,29.17
2023-01-29T14:55:08.038Z,29.18
2023-01-29T14:57:35.100Z,29.13
2023-01-29T15:00:18.528Z,27.93
2023-01-29T15:02:45.698Z,28.33
2023-01-29T15:05:17.626Z,27.71
2023-01-29T15:07:57.245Z,28.31
2023-01-29T15:10:33.488Z,28.65
2023-01-29T15:13:22.788Z,27.62
2023-01-29T15:15:57.201Z,28.17
2023-01-29T15:18:34.777Z,28.47
2023-01-29T15:21:04.666Z,28.62
2023-01-29T15:23:42.801Z,28.21
2023-01-29T15:26:17.488Z,27.50
2023-01-29T15:28:47.251Z,28.56
2023-01-29T15:31:18.676Z,27.24
2023-01-29T15:33:45.976Z,27.82
2023-01-29T15:36:18.937Z,28.15
2023-01-29T15:38:45.689Z,28.24
2023-01-29T15:41:20.160Z,28.05
2023-01-29T15:43:48.408Z,28.91
2023-01-29T15:46:27.120Z,29.33
2023-01-29T15:48:54.616Z,27.30
2023-01-29T15:51:24.055Z,28.14
2023-01-29T15:54:01.878Z,28.59
2023-01-29T15:56:37.400Z,28.03
2023-01-29T15:59:09.389Z,27.79
2023-01-29T16:01:36.665Z,28.56
2023-01-29T16:04:03.482Z,27.47
2023-01-29T16:06:35.962Z,27.46
2023-01-29T16:09:03.352Z,28.96
2023-01-29T16:11:30.327Z,31.35
2023-01-29T16:13:57.012Z,29.42
2023-01-29T16:16:24.428Z,28.49
2023-01-29T16:18:59.532Z,29.73
2023-01-29T16:21:35.218Z,34.24
2023-01-29T16:24:01.773Z,30.20
2023-01-29T16:26:30.614Z,33.68
2023-01-29T16:28:57.379Z,35.20
2023-01-29T16:31:27.098Z,32.02
2023-01-29T16:33:54.432Z,32.39
2023-01-29T16:36:23.103Z,30.97
2023-01-29T16:39:11.094Z,38.07
2023-01-29T16:41:37.812Z,30.69
2023-01-29T16:44:16.771Z,29.53
2023-01-29T16:46:47.568Z,30.33
2023-01-29T16:49:28.999Z,29.32
2023-01-29T16:51:55.725Z,30.07
2023-01-29T16:54:25.890Z,31.14
2023-01-29T16:56:54.396Z,32.58
2023-01-29T16:59:23.636Z,33.91
2023-01-29T17:01:50.871Z,30.84
2023-01-29T17:04:18.055Z,34.13
2023-01-29T17:06:46.525Z,31.87
2023-01-29T17:09:28.538Z,32.54
2023-01-29T17:11:59.540Z,31.63
2023-01-29T17:14:26.584Z,33.42
2023-01-29T17:17:03.814Z,35.33
2023-01-29T17:19:30.675Z,34.36
2023-01-29T17:21:57.506Z,33.70
2023-01-29T17:24:24.276Z,38.51
2023-01-29T17:26:51.108Z,40.62
2023-01-29T17:29:21.079Z,39.26
2023-01-29T17:31:47.790Z,39.23
2023-01-29T17:34:14.893Z,38.05
2023-01-29T17:36:45.016Z,40.15
2023-01-29T17:39:23.608Z,40.34
2023-01-29T17:41:51.512Z,38.75
2023-01-29T17:44:20.358Z,40.87
2023-01-29T17:46:48.399Z,36.43
2023-01-29T17:49:27.821Z,35.63
2023-01-29T17:52:01.806Z,36.35
2023-01-29T17:54:31.511Z,36.88
2023-01-29T17:56:59.775Z,37.34
2023-01-29T17:59:31.361Z,35.09
2023-01-29T18:01:58.681Z,33.82
2023-01-29T18:04:28.524Z,35.64
2023-01-29T18:06:55.364Z,35.35
2023-01-29T18:09:22.523Z,35.96
2023-01-29T18:11:49.776Z,35.89
2023-01-29T18:14:16.634Z,35.94
2023-01-29T18:16:43.697Z,37.27
2023-01-29T18:19:13.156Z,37.42
2023-01-29T18:21:50.763Z,39.96
2023-01-29T18:24:18.373Z,40.85
2023-01-29T18:26:45.594Z,40.67
2023-01-29T18:29:13.844Z,40.40
2023-01-29T18:31:43.386Z,40.59
2023-01-29T18:34:10.196Z,41.20
2023-01-29T18:36:37.793Z,42.41
2023-01-29T18:39:05.026Z,41.97
2023-01-29T18:41:32.495Z,45.51
2023-01-29T18:43:59.780Z,44.90
2023-01-29T18:46:27.123Z,46.21
2023-01-29T18:48:54.187Z,45.72
2023-01-29T18:51:20.886Z,46.68
2023-01-29T18:53:52.487Z,47.55
2023-01-29T18:56:20.246Z,49.04
2023-01-29T18:58:52.129Z,48.71
2023-01-29T19:01:22.191Z,57.41
2023-01-29T19:03:49.018Z,57.10
2023-01-29T19:06:15.912Z,52.69
2023-01-29T19:08:43.665Z,54.96
2023-01-29T19:11:11.709Z,52.28
2023-01-29T19:13:38.545Z,52.18
2023-01-29T19:16:16.427Z,51.86
2023-01-29T19:18:44.026Z,50.75
2023-01-29T19:21:14.873Z,50.56
2023-01-29T19:23:42.300Z,49.96
2023-01-29T19:26:09.614Z,48.05
2023-01-29T19:28:39.309Z,45.62
2023-01-29T19:31:06.094Z,45.70
2023-01-29T19:33:32.858Z,46.41
2023-01-29T19:35:59.770Z,47.32
2023-01-29T19:38:26.739Z,47.32
2023-01-29T19:40:53.482Z,46.78
2023-01-29T19:43:20.564Z,46.59
2023-01-29T19:45:56.545Z,44.88
2023-01-29T19:48:23.362Z,44.32
2023-01-29T19:51:00.854Z,44.21
2023-01-29T19:53:28.662Z,42.03
2023-01-29T19:56:03.295Z,41.91
2023-01-29T19:58:30.286Z,41.93
2023-01-29T20:01:02.233Z,40.68
2023-01-29T20:03:29.064Z,42.08
2023-01-29T20:05:56.584Z,41.05
2023-01-29T20:08:23.643Z,41.04
2023-01-29T20:10:50.462Z,40.65
2023-01-29T20:13:17.256Z,41.34
2023-01-29T20:15:47.696Z,42.12
2023-01-29T20:18:14.421Z,43.36
2023-01-29T20:20:46.347Z,42.91
2023-01-29T20:23:25.055Z,43.20
2023-01-29T20:26:02.470Z,42.72
2023-01-29T20:28:29.377Z,42.24
2023-01-29T20:30:56.147Z,41.88
2023-01-29T20:33:23.454Z,42.40
2023-01-29T20:35:58.012Z,41.82
2023-01-29T20:38:26.488Z,42.80
2023-01-29T20:41:13.713Z,42.86
2023-01-29T20:43:40.635Z,42.23
2023-01-29T20:46:07.601Z,40.73
2023-01-29T20:48:34.458Z,41.41
2023-01-29T20:51:09.270Z,40.21
2023-01-29T20:53:36.350Z,39.49
2023-01-29T20:56:04.621Z,38.59
2023-01-29T20:58:31.761Z,38.23
2023-01-29T21:00:58.535Z,36.94
2023-01-29T21:03:25.807Z,38.53
2023-01-29T21:05:52.637Z,38.18
2023-01-29T21:08:19.327Z,36.60
2023-01-29T21:10:47.709Z,36.87
2023-01-29T21:13:14.523Z,36.66
2023-01-29T21:15:43.502Z,38.48
2023-01-29T21:18:13.157Z,38.37
2023-01-29T21:20:40.058Z,38.97
2023-01-29T21:23:25.859Z,38.46
2023-01-29T21:25:52.618Z,38.18
2023-01-29T21:28:19.360Z,38.40
2023-01-29T21:30:46.523Z,37.83
2023-01-29T21:33:13.386Z,39.38
2023-01-29T21:35:40.181Z,39.27
2023-01-29T21:38:07.347Z,39.15
2023-01-29T21:40:36.942Z,40.01
2023-01-29T21:43:04.757Z,38.32
2023-01-29T21:45:31.467Z,39.05
2023-01-29T21:47:58.238Z,38.40
2023-01-29T21:50:25.017Z,37.37
2023-01-29T21:52:51.830Z,36.54
2023-01-29T21:55:18.685Z,35.18
2023-01-29T21:57:46.453Z,35.46
2023-01-29T22:00:13.646Z,35.87
2023-01-29T22:02:40.414Z,36.41
2023-01-29T22:05:18.134Z,36.97
2023-01-29T22:07:47.099Z,36.49
2023-01-29T22:10:14.166Z,37.08
2023-01-29T22:12:42.697Z,37.94
2023-01-29T22:15:09.960Z,38.85
2023-01-29T22:17:36.653Z,40.01
2023-01-29T22:20:03.512Z,41.08
2023-01-29T22:22:30.272Z,40.18
2023-01-29T22:25:02.239Z,41.85
2023-01-29T22:27:28.941Z,40.85
2023-01-29T22:29:55.646Z,40.93
2023-01-29T22:32:22.807Z,40.83
2023-01-29T22:34:49.832Z,38.29
2023-01-29T22:37:16.655Z,38.45
2023-01-29T22:39:45.055Z,38.84
2023-01-29T22:42:11.797Z,39.59
2023-01-29T22:44:38.637Z,38.36
2023-01-29T22:47:05.761Z,37.47
2023-01-29T22:49:32.492Z,36.11
2023-01-29T22:51:59.632Z,36.29
2023-01-29T22:54:27.278Z,34.91
2023-01-29T22:56:54.011Z,35.81
2023-01-29T22:59:20.856Z,35.65
2023-01-29T23:01:47.705Z,33.58
2023-01-29T23:04:14.486Z,34.35
2023-01-29T23:06:41.333Z,33.47
2023-01-29T23:09:08.090Z,33.62
2023-01-29T23:11:34.773Z,34.53
2023-01-29T23:14:01.481Z,33.62
2023-01-29T23:16:28.460Z,33.51
2023-01-29T23:18:55.364Z,33.59
2023-01-29T23:21:24.881Z,32.13
2023-01-29T23:23:51.752Z,32.86
2023-01-29T23:26:21.261Z,32.41
2023-01-29T23:28:48.032Z,32.71
2023-01-29T23:31:15.027Z,34.45
2023-01-29T23:33:41.844Z,33.20
2023-01-29T23:36:08.651Z,32.15
2023-01-29T23:38:35.664Z,32.41
2023-01-29T23:41:02.369Z,32.49
2023-01-29T23:43:29.124Z,32.08
2023-01-29T23:45:55.925Z,31.87
2023-01-29T23:48:23.533Z,34.75
2023-01-29T23:50:50.470Z,33.81
2023-01-29T23:53:23.391Z,32.83
2023-01-29T23:56:00.925Z,31.44
2023-01-29T23:58:27.944Z,32.39
